< < Back
Terminal Aerodrome Forecast


Current Version              Previous Versions:   1  2  3  4  5  6  7  8  9  

Terminal Aerodrome Forecast

613
FTUS42 KFFC 262330
TAFPDK
TAF
KPDK 262330Z 2700/2724 34010KT P6SM VCSH SCT060 BKN250
     FM270200 20003KT P6SM SCT050 SCT120
     FM270500 00000KT P6SM SCT015 BKN100
     FM271000 27003KT P6SM BKN025 BKN100
     FM271500 28007KT P6SM VCSH SCT035 BKN120 PROB30 2717/2721 5SM
      -TSRA OVC025CB
     FM272200 30005KT P6SM SCT100=



Latest METAR

102
SAUS70 KWBC 270700 RRE
MTRPDK
METAR KPDK 270653Z AUTO 14003KT 10SM CLR 23/18 A3001 RMK AO2 SLP143
T02280183


USA.gov is the U.S. government's official web portal to all federal, state and local government web resources and services.